sensor_id;sensor_type;location;lat;lon;timestamp;temperature;humidity
8372;DHT22;4223;48.724;8.982;2022-12-17T00:02:26;-6.70;99.90
8372;DHT22;4223;48.724;8.982;2022-12-17T00:05:24;-6.80;99.60
8372;DHT22;4223;48.724;8.982;2022-12-17T00:08:09;-6.80;99.90
8372;DHT22;4223;48.724;8.982;2022-12-17T00:10:53;-6.90;99.80
8372;DHT22;4223;48.724;8.982;2022-12-17T00:13:41;-6.90;99.90
8372;DHT22;4223;48.724;8.982;2022-12-17T00:16:26;-7.00;99.90
8372;DHT22;4223;48.724;8.982;2022-12-17T00:19:10;-7.00;99.90
8372;DHT22;4223;48.724;8.982;2022-12-17T00:21:54;-7.10;99.90
8372;DHT22;4223;48.724;8.982;2022-12-17T00:24:38;-7.10;99.90
8372;DHT22;4223;48.724;8.982;2022-12-17T00:27:23;-7.20;99.90
8372;DHT22;4223;48.724;8.982;2022-12-17T00:30:09;-7.10;99.90
8372;DHT22;4223;48.724;8.982;2022-12-17T00:32:53;-7.20;99.90
8372;DHT22;4223;48.724;8.982;2022-12-17T00:35:38;-7.10;99.90
8372;DHT22;4223;48.724;8.982;2022-12-17T00:38:22;-7.30;99.90
8372;DHT22;4223;48.724;8.982;2022-12-17T00:41:06;-7.30;99.90
8372;DHT22;4223;48.724;8.982;2022-12-17T00:43:51;-7.40;99.90
8372;DHT22;4223;48.724;8.982;2022-12-17T00:46:36;-7.40;99.90
8372;DHT22;4223;48.724;8.982;2022-12-17T00:49:20;-7.50;99.90
8372;DHT22;4223;48.724;8.982;2022-12-17T00:52:05;-7.50;99.90
8372;DHT22;4223;48.724;8.982;2022-12-17T00:54:49;-7.60;99.90
8372;DHT22;4223;48.724;8.982;2022-12-17T00:57:33;-7.60;99.90
8372;DHT22;4223;48.724;8.982;2022-12-17T01:00:17;-7.60;99.90
8372;DHT22;4223;48.724;8.982;2022-12-17T01:03:09;-7.70;99.90
8372;DHT22;4223;48.724;8.982;2022-12-17T01:05:54;-7.70;99.90
8372;DHT22;4223;48.724;8.982;2022-12-17T01:08:38;-7.80;99.90
8372;DHT22;4223;48.724;8.982;2022-12-17T01:11:22;-7.80;99.90
8372;DHT22;4223;48.724;8.982;2022-12-17T01:14:07;-7.80;99.90
8372;DHT22;4223;48.724;8.982;2022-12-17T01:16:48;-5.70;99.90
8372;DHT22;4223;48.724;8.982;2022-12-17T01:19:34;-8.00;98.00
8372;DHT22;4223;48.724;8.982;2022-12-17T01:22:18;-8.10;97.40
8372;DHT22;4223;48.724;8.982;2022-12-17T01:25:03;-8.20;98.20
8372;DHT22;4223;48.724;8.982;2022-12-17T01:27:47;-8.20;98.40
8372;DHT22;4223;48.724;8.982;2022-12-17T01:30:32;-8.20;98.00
8372;DHT22;4223;48.724;8.982;2022-12-17T01:33:18;-8.30;98.50
8372;DHT22;4223;48.724;8.982;2022-12-17T01:36:04;-8.30;97.50
8372;DHT22;4223;48.724;8.982;2022-12-17T01:38:48;-8.30;97.50
8372;DHT22;4223;48.724;8.982;2022-12-17T01:41:32;-8.40;98.10
8372;DHT22;4223;48.724;8.982;2022-12-17T01:44:44;-8.40;98.20
8372;DHT22;4223;48.724;8.982;2022-12-17T01:47:30;-8.40;97.80
8372;DHT22;4223;48.724;8.982;2022-12-17T01:50:17;-8.50;95.00
8372;DHT22;4223;48.724;8.982;2022-12-17T01:53:04;-8.50;95.30
8372;DHT22;4223;48.724;8.982;2022-12-17T01:55:49;-8.50;98.10
8372;DHT22;4223;48.724;8.982;2022-12-17T01:58:35;-8.50;98.00
8372;DHT22;4223;48.724;8.982;2022-12-17T02:01:19;-8.50;97.90
8372;DHT22;4223;48.724;8.982;2022-12-17T02:04:04;-8.60;96.90
8372;DHT22;4223;48.724;8.982;2022-12-17T02:06:54;-8.60;97.50
8372;DHT22;4223;48.724;8.982;2022-12-17T02:09:45;-8.60;98.50
8372;DHT22;4223;48.724;8.982;2022-12-17T02:12:36;-8.60;96.50
8372;DHT22;4223;48.724;8.982;2022-12-17T02:15:27;-8.70;98.50
8372;DHT22;4223;48.724;8.982;2022-12-17T02:18:18;-8.80;94.90
8372;DHT22;4223;48.724;8.982;2022-12-17T02:21:05;-8.90;93.80
8372;DHT22;4223;48.724;8.982;2022-12-17T02:23:57;-8.90;93.50
8372;DHT22;4223;48.724;8.982;2022-12-17T02:26:47;-9.00;93.10
8372;DHT22;4223;48.724;8.982;2022-12-17T02:29:36;-9.00;94.00
8372;DHT22;4223;48.724;8.982;2022-12-17T02:32:23;-9.00;95.40
8372;DHT22;4223;48.724;8.982;2022-12-17T02:35:12;-9.00;96.50
8372;DHT22;4223;48.724;8.982;2022-12-17T02:37:57;-9.00;95.70
8372;DHT22;4223;48.724;8.982;2022-12-17T02:40:41;-9.10;91.90
8372;DHT22;4223;48.724;8.982;2022-12-17T02:43:29;-9.20;91.60
8372;DHT22;4223;48.724;8.982;2022-12-17T02:46:14;-9.30;88.90
8372;DHT22;4223;48.724;8.982;2022-12-17T02:48:58;-9.40;90.30
8372;DHT22;4223;48.724;8.982;2022-12-17T02:51:43;-9.30;92.40
8372;DHT22;4223;48.724;8.982;2022-12-17T02:54:33;-9.40;92.30
8372;DHT22;4223;48.724;8.982;2022-12-17T02:57:18;-9.30;93.40
8372;DHT22;4223;48.724;8.982;2022-12-17T03:00:05;-9.40;92.80
8372;DHT22;4223;48.724;8.982;2022-12-17T03:02:50;-9.50;90.30
8372;DHT22;4223;48.724;8.982;2022-12-17T03:05:34;-9.50;90.80
8372;DHT22;4223;48.724;8.982;2022-12-17T03:08:19;-9.60;90.60
8372;DHT22;4223;48.724;8.982;2022-12-17T03:11:03;-9.60;91.40
8372;DHT22;4223;48.724;8.982;2022-12-17T03:13:47;-9.50;93.50
8372;DHT22;4223;48.724;8.982;2022-12-17T03:16:33;-9.50;95.60
8372;DHT22;4223;48.724;8.982;2022-12-17T03:19:17;-9.50;92.20
8372;DHT22;4223;48.724;8.982;2022-12-17T03:22:01;-9.50;92.70
8372;DHT22;4223;48.724;8.982;2022-12-17T03:24:45;-9.60;91.20
8372;DHT22;4223;48.724;8.982;2022-12-17T03:27:29;-9.60;93.80
8372;DHT22;4223;48.724;8.982;2022-12-17T03:30:13;-9.40;96.10
8372;DHT22;4223;48.724;8.982;2022-12-17T03:32:59;-9.50;93.10
8372;DHT22;4223;48.724;8.982;2022-12-17T03:35:43;-9.50;93.60
8372;DHT22;4223;48.724;8.982;2022-12-17T03:38:27;-9.50;91.40
8372;DHT22;4223;48.724;8.982;2022-12-17T03:41:11;-9.60;89.30
8372;DHT22;4223;48.724;8.982;2022-12-17T03:43:52;-9.70;87.80
8372;DHT22;4223;48.724;8.982;2022-12-17T03:46:37;-9.80;83.60
8372;DHT22;4223;48.724;8.982;2022-12-17T03:49:22;-9.90;85.50
8372;DHT22;4223;48.724;8.982;2022-12-17T03:52:07;-9.90;90.00
8372;DHT22;4223;48.724;8.982;2022-12-17T03:54:51;-9.80;93.50
8372;DHT22;4223;48.724;8.982;2022-12-17T03:57:35;-9.80;94.00
8372;DHT22;4223;48.724;8.982;2022-12-17T04:00:19;-9.90;94.50
8372;DHT22;4223;48.724;8.982;2022-12-17T04:03:12;-9.90;94.20
8372;DHT22;4223;48.724;8.982;2022-12-17T04:05:57;-10.00;94.50
8372;DHT22;4223;48.724;8.982;2022-12-17T04:08:42;-9.90;96.50
8372;DHT22;4223;48.724;8.982;2022-12-17T04:11:27;-10.10;97.80
8372;DHT22;4223;48.724;8.982;2022-12-17T04:14:11;-9.90;95.30
8372;DHT22;4223;48.724;8.982;2022-12-17T04:16:55;-10.00;94.70
8372;DHT22;4223;48.724;8.982;2022-12-17T04:19:46;-10.00;94.90
8372;DHT22;4223;48.724;8.982;2022-12-17T04:22:32;-10.00;95.90
8372;DHT22;4223;48.724;8.982;2022-12-17T04:25:16;-10.00;96.70
8372;DHT22;4223;48.724;8.982;2022-12-17T04:28:00;-10.00;95.10
8372;DHT22;4223;48.724;8.982;2022-12-17T04:30:45;-10.10;95.90
8372;DHT22;4223;48.724;8.982;2022-12-17T04:33:29;-10.00;96.80
8372;DHT22;4223;48.724;8.982;2022-12-17T04:36:13;-10.00;98.30
8372;DHT22;4223;48.724;8.982;2022-12-17T04:38:59;-10.00;94.90
8372;DHT22;4223;48.724;8.982;2022-12-17T04:41:44;-10.10;94.50
8372;DHT22;4223;48.724;8.982;2022-12-17T04:44:28;-10.20;92.80
8372;DHT22;4223;48.724;8.982;2022-12-17T04:47:12;-10.20;94.60
8372;DHT22;4223;48.724;8.982;2022-12-17T04:49:56;-10.10;95.40
8372;DHT22;4223;48.724;8.982;2022-12-17T04:52:40;-10.20;93.40
8372;DHT22;4223;48.724;8.982;2022-12-17T04:55:26;-10.20;91.80
8372;DHT22;4223;48.724;8.982;2022-12-17T04:58:10;-10.30;91.00
8372;DHT22;4223;48.724;8.982;2022-12-17T05:00:55;-10.40;88.80
8372;DHT22;4223;48.724;8.982;2022-12-17T05:03:40;-10.40;89.30
8372;DHT22;4223;48.724;8.982;2022-12-17T05:06:25;-10.50;85.50
8372;DHT22;4223;48.724;8.982;2022-12-17T05:09:09;-10.50;88.00
8372;DHT22;4223;48.724;8.982;2022-12-17T05:11:54;-10.50;89.00
8372;DHT22;4223;48.724;8.982;2022-12-17T05:14:38;-10.40;91.80
8372;DHT22;4223;48.724;8.982;2022-12-17T05:17:22;-10.40;94.80
8372;DHT22;4223;48.724;8.982;2022-12-17T05:20:08;-10.30;99.20
8372;DHT22;4223;48.724;8.982;2022-12-17T05:22:52;-10.40;99.90
8372;DHT22;4223;48.724;8.982;2022-12-17T05:25:39;-10.40;99.90
8372;DHT22;4223;48.724;8.982;2022-12-17T05:28:27;-10.50;99.90
8372;DHT22;4223;48.724;8.982;2022-12-17T05:31:12;-10.50;99.90
8372;DHT22;4223;48.724;8.982;2022-12-17T05:33:57;-10.50;99.90
8372;DHT22;4223;48.724;8.982;2022-12-17T05:36:41;-10.60;99.90
8372;DHT22;4223;48.724;8.982;2022-12-17T05:39:25;-10.60;99.90
8372;DHT22;4223;48.724;8.982;2022-12-17T05:42:09;-10.60;99.90
8372;DHT22;4223;48.724;8.982;2022-12-17T05:44:55;-10.60;99.90
8372;DHT22;4223;48.724;8.982;2022-12-17T05:47:40;-10.60;99.90
8372;DHT22;4223;48.724;8.982;2022-12-17T05:50:24;-10.70;99.90
8372;DHT22;4223;48.724;8.982;2022-12-17T05:53:08;-10.80;99.90
8372;DHT22;4223;48.724;8.982;2022-12-17T05:55:53;-10.90;99.90
8372;DHT22;4223;48.724;8.982;2022-12-17T05:58:38;-10.90;99.90
8372;DHT22;4223;48.724;8.982;2022-12-17T06:01:23;-10.90;99.90
8372;DHT22;4223;48.724;8.982;2022-12-17T06:04:08;-10.90;99.90
8372;DHT22;4223;48.724;8.982;2022-12-17T06:06:53;-11.00;99.90
8372;DHT22;4223;48.724;8.982;2022-12-17T06:09:37;-11.00;99.90
8372;DHT22;4223;48.724;8.982;2022-12-17T06:12:21;-11.00;99.90
8372;DHT22;4223;48.724;8.982;2022-12-17T06:15:06;-11.00;99.90
8372;DHT22;4223;48.724;8.982;2022-12-17T06:17:54;-11.10;99.90
8372;DHT22;4223;48.724;8.982;2022-12-17T06:20:39;-11.10;99.90
8372;DHT22;4223;48.724;8.982;2022-12-17T06:23:23;-11.10;99.90
8372;DHT22;4223;48.724;8.982;2022-12-17T06:26:07;-10.00;99.90
8372;DHT22;4223;48.724;8.982;2022-12-17T06:28:52;-11.10;99.90
8372;DHT22;4223;48.724;8.982;2022-12-17T06:31:36;-11.00;99.90
8372;DHT22;4223;48.724;8.982;2022-12-17T06:34:22;-10.90;99.90
8372;DHT22;4223;48.724;8.982;2022-12-17T06:37:06;-10.80;99.90
8372;DHT22;4223;48.724;8.982;2022-12-17T06:39:59;-10.70;99.90
8372;DHT22;4223;48.724;8.982;2022-12-17T06:42:51;-10.60;99.90
8372;DHT22;4223;48.724;8.982;2022-12-17T06:45:36;-10.50;99.90
8372;DHT22;4223;48.724;8.982;2022-12-17T06:48:20;-10.40;99.90
8372;DHT22;4223;48.724;8.982;2022-12-17T06:51:05;-10.30;99.90
8372;DHT22;4223;48.724;8.982;2022-12-17T06:53:49;-10.20;99.90
8372;DHT22;4223;48.724;8.982;2022-12-17T06:56:30;-10.10;99.90
8372;DHT22;4223;48.724;8.982;2022-12-17T06:59:14;-10.10;99.90
8372;DHT22;4223;48.724;8.982;2022-12-17T07:01:58;-10.10;99.90
8372;DHT22;4223;48.724;8.982;2022-12-17T07:04:42;-9.90;99.90
8372;DHT22;4223;48.724;8.982;2022-12-17T07:07:28;-9.80;99.90
8372;DHT22;4223;48.724;8.982;2022-12-17T07:10:13;-9.80;99.90
8372;DHT22;4223;48.724;8.982;2022-12-17T07:12:53;-9.70;99.90
8372;DHT22;4223;48.724;8.982;2022-12-17T07:15:53;-9.60;99.90
8372;DHT22;4223;48.724;8.982;2022-12-17T07:18:38;-9.50;99.90
8372;DHT22;4223;48.724;8.982;2022-12-17T07:21:22;-9.50;99.90
8372;DHT22;4223;48.724;8.982;2022-12-17T07:24:08;-9.40;99.90
8372;DHT22;4223;48.724;8.982;2022-12-17T07:26:53;-9.30;99.90
8372;DHT22;4223;48.724;8.982;2022-12-17T07:29:37;-9.20;99.90
8372;DHT22;4223;48.724;8.982;2022-12-17T07:32:22;-9.20;99.90
8372;DHT22;4223;48.724;8.982;2022-12-17T07:35:07;-9.20;99.90
8372;DHT22;4223;48.724;8.982;2022-12-17T07:38:00;-9.20;99.90
8372;DHT22;4223;48.724;8.982;2022-12-17T07:40:46;-9.20;99.90
8372;DHT22;4223;48.724;8.982;2022-12-17T07:43:30;-9.20;99.90
8372;DHT22;4223;48.724;8.982;2022-12-17T07:46:15;-9.20;99.90
8372;DHT22;4223;48.724;8.982;2022-12-17T07:48:59;-9.30;99.90
8372;DHT22;4223;48.724;8.982;2022-12-17T07:51:43;-9.30;99.90
8372;DHT22;4223;48.724;8.982;2022-12-17T07:54:28;-9.30;99.90
8372;DHT22;4223;48.724;8.982;2022-12-17T07:57:13;-9.40;99.90
8372;DHT22;4223;48.724;8.982;2022-12-17T07:59:58;-9.30;99.90
8372;DHT22;4223;48.724;8.982;2022-12-17T08:02:42;-9.20;99.90
8372;DHT22;4223;48.724;8.982;2022-12-17T08:05:26;-9.20;99.90
8372;DHT22;4223;48.724;8.982;2022-12-17T08:08:12;-9.00;99.90
8372;DHT22;4223;48.724;8.982;2022-12-17T08:10:57;-8.90;99.90
8372;DHT22;4223;48.724;8.982;2022-12-17T08:13:42;-8.90;99.90
8372;DHT22;4223;48.724;8.982;2022-12-17T08:16:27;-8.90;99.90
8372;DHT22;4223;48.724;8.982;2022-12-17T08:19:11;-8.70;99.90
8372;DHT22;4223;48.724;8.982;2022-12-17T08:21:56;-8.60;99.90
8372;DHT22;4223;48.724;8.982;2022-12-17T08:24:40;-8.40;99.90
8372;DHT22;4223;48.724;8.982;2022-12-17T08:27:24;-8.30;99.90
8372;DHT22;4223;48.724;8.982;2022-12-17T08:30:11;-8.20;99.90
8372;DHT22;4223;48.724;8.982;2022-12-17T08:32:55;-8.10;99.90
8372;DHT22;4223;48.724;8.982;2022-12-17T08:35:50;-8.00;99.90
8372;DHT22;4223;48.724;8.982;2022-12-17T08:38:34;-7.90;99.90
8372;DHT22;4223;48.724;8.982;2022-12-17T08:41:18;-7.90;99.90
8372;DHT22;4223;48.724;8.982;2022-12-17T08:44:02;-7.80;99.90
8372;DHT22;4223;48.724;8.982;2022-12-17T08:46:48;-7.50;99.90
8372;DHT22;4223;48.724;8.982;2022-12-17T08:49:33;-7.50;99.90
8372;DHT22;4223;48.724;8.982;2022-12-17T08:52:17;-7.30;99.90
8372;DHT22;4223;48.724;8.982;2022-12-17T08:55:02;-7.20;99.90
8372;DHT22;4223;48.724;8.982;2022-12-17T08:57:52;-7.30;99.90
8372;DHT22;4223;48.724;8.982;2022-12-17T09:00:36;-7.20;99.90
8372;DHT22;4223;48.724;8.982;2022-12-17T09:03:21;-7.10;99.90
8372;DHT22;4223;48.724;8.982;2022-12-17T09:06:05;-7.10;99.90
8372;DHT22;4223;48.724;8.982;2022-12-17T09:08:49;-7.10;99.90
8372;DHT22;4223;48.724;8.982;2022-12-17T09:11:33;-7.20;99.90
8372;DHT22;4223;48.724;8.982;2022-12-17T09:14:21;-7.20;99.90
8372;DHT22;4223;48.724;8.982;2022-12-17T09:17:05;-7.20;99.90
8372;DHT22;4223;48.724;8.982;2022-12-17T09:19:50;-7.20;99.90
8372;DHT22;4223;48.724;8.982;2022-12-17T09:22:38;-7.00;99.90
8372;DHT22;4223;48.724;8.982;2022-12-17T09:25:22;-7.00;99.90
8372;DHT22;4223;48.724;8.982;2022-12-17T09:28:08;-7.00;99.90
8372;DHT22;4223;48.724;8.982;2022-12-17T09:30:57;-7.10;99.90
8372;DHT22;4223;48.724;8.982;2022-12-17T09:33:41;-7.10;99.90
8372;DHT22;4223;48.724;8.982;2022-12-17T09:36:27;-7.20;99.90
8372;DHT22;4223;48.724;8.982;2022-12-17T09:39:12;-7.20;99.90
8372;DHT22;4223;48.724;8.982;2022-12-17T09:42:03;-7.20;99.90
8372;DHT22;4223;48.724;8.982;2022-12-17T09:44:52;-7.00;99.90
8372;DHT22;4223;48.724;8.982;2022-12-17T09:47:46;-7.00;99.90
8372;DHT22;4223;48.724;8.982;2022-12-17T09:50:31;-6.80;99.90
8372;DHT22;4223;48.724;8.982;2022-12-17T09:53:21;-6.60;99.90
8372;DHT22;4223;48.724;8.982;2022-12-17T09:56:10;-6.70;99.90
8372;DHT22;4223;48.724;8.982;2022-12-17T09:58:55;-6.60;99.90
8372;DHT22;4223;48.724;8.982;2022-12-17T10:01:39;-6.70;99.90
8372;DHT22;4223;48.724;8.982;2022-12-17T10:04:31;-6.70;99.90
8372;DHT22;4223;48.724;8.982;2022-12-17T10:07:19;-6.50;99.90
8372;DHT22;4223;48.724;8.982;2022-12-17T10:10:16;-6.40;99.90
8372;DHT22;4223;48.724;8.982;2022-12-17T10:13:00;-6.40;99.90
8372;DHT22;4223;48.724;8.982;2022-12-17T10:15:45;-6.20;99.90
8372;DHT22;4223;48.724;8.982;2022-12-17T10:18:30;-6.00;99.90
8372;DHT22;4223;48.724;8.982;2022-12-17T10:21:17;-5.90;99.80
8372;DHT22;4223;48.724;8.982;2022-12-17T10:24:06;-5.70;99.90
8372;DHT22;4223;48.724;8.982;2022-12-17T10:26:52;-5.70;93.40
8372;DHT22;4223;48.724;8.982;2022-12-17T10:29:38;-5.40;96.80
8372;DHT22;4223;48.724;8.982;2022-12-17T10:32:25;-5.40;92.10
8372;DHT22;4223;48.724;8.982;2022-12-17T10:35:17;-5.20;93.10
8372;DHT22;4223;48.724;8.982;2022-12-17T10:38:09;-5.20;83.10
8372;DHT22;4223;48.724;8.982;2022-12-17T10:40:54;-5.20;85.80
8372;DHT22;4223;48.724;8.982;2022-12-17T10:43:40;-5.20;85.00
8372;DHT22;4223;48.724;8.982;2022-12-17T10:46:25;-5.10;84.80
8372;DHT22;4223;48.724;8.982;2022-12-17T10:49:12;-5.00;87.00
8372;DHT22;4223;48.724;8.982;2022-12-17T10:52:04;-4.70;88.90
8372;DHT22;4223;48.724;8.982;2022-12-17T10:55:01;-4.50;75.70
8372;DHT22;4223;48.724;8.982;2022-12-17T10:57:47;-4.40;56.80
8372;DHT22;4223;48.724;8.982;2022-12-17T11:00:35;-4.50;50.50
8372;DHT22;4223;48.724;8.982;2022-12-17T11:03:30;-4.30;54.40
8372;DHT22;4223;48.724;8.982;2022-12-17T11:06:19;-4.10;48.50
8372;DHT22;4223;48.724;8.982;2022-12-17T11:09:05;-4.00;50.70
8372;DHT22;4223;48.724;8.982;2022-12-17T11:11:53;-3.80;26.40
8372;DHT22;4223;48.724;8.982;2022-12-17T11:14:44;-3.70;4.90
8372;DHT22;4223;48.724;8.982;2022-12-17T11:17:33;-3.60;12.70
8372;DHT22;4223;48.724;8.982;2022-12-17T11:20:22;-3.60;1.00
8372;DHT22;4223;48.724;8.982;2022-12-17T11:23:13;-3.70;1.00
8372;DHT22;4223;48.724;8.982;2022-12-17T11:26:03;-3.70;22.60
8372;DHT22;4223;48.724;8.982;2022-12-17T11:28:49;-3.60;8.20
8372;DHT22;4223;48.724;8.982;2022-12-17T11:31:45;-3.40;1.00
8372;DHT22;4223;48.724;8.982;2022-12-17T11:34:45;-3.10;1.00
8372;DHT22;4223;48.724;8.982;2022-12-17T11:37:37;-2.70;1.00
8372;DHT22;4223;48.724;8.982;2022-12-17T11:40:28;-2.50;1.00
8372;DHT22;4223;48.724;8.982;2022-12-17T11:43:18;-2.00;1.00
8372;DHT22;4223;48.724;8.982;2022-12-17T11:46:11;-2.00;1.00
8372;DHT22;4223;48.724;8.982;2022-12-17T11:49:03;-2.00;1.00
8372;DHT22;4223;48.724;8.982;2022-12-17T11:51:57;-2.00;1.00
8372;DHT22;4223;48.724;8.982;2022-12-17T11:54:50;-2.20;1.00
8372;DHT22;4223;48.724;8.982;2022-12-17T11:57:41;-2.30;1.00
8372;DHT22;4223;48.724;8.982;2022-12-17T12:00:33;-1.90;1.00
8372;DHT22;4223;48.724;8.982;2022-12-17T12:03:27;-1.90;1.00
8372;DHT22;4223;48.724;8.982;2022-12-17T12:06:18;-1.70;1.00
8372;DHT22;4223;48.724;8.982;2022-12-17T12:09:14;-1.80;1.00
8372;DHT22;4223;48.724;8.982;2022-12-17T12:12:05;-1.70;1.00
8372;DHT22;4223;48.724;8.982;2022-12-17T12:14:59;-1.70;1.00
8372;DHT22;4223;48.724;8.982;2022-12-17T12:17:51;-2.20;1.00
8372;DHT22;4223;48.724;8.982;2022-12-17T12:21:05;-2.50;1.00
8372;DHT22;4223;48.724;8.982;2022-12-17T12:23:59;-2.40;1.00
8372;DHT22;4223;48.724;8.982;2022-12-17T12:26:58;-2.50;1.00
8372;DHT22;4223;48.724;8.982;2022-12-17T12:29:53;-2.50;17.30
8372;DHT22;4223;48.724;8.982;2022-12-17T12:32:48;-2.60;10.50
8372;DHT22;4223;48.724;8.982;2022-12-17T12:35:37;-2.50;28.70
8372;DHT22;4223;48.724;8.982;2022-12-17T12:38:25;-2.40;3.30
8372;DHT22;4223;48.724;8.982;2022-12-17T12:41:17;-2.30;23.80
8372;DHT22;4223;48.724;8.982;2022-12-17T12:44:13;-1.80;22.70
8372;DHT22;4223;48.724;8.982;2022-12-17T12:47:03;-1.50;1.00
8372;DHT22;4223;48.724;8.982;2022-12-17T12:49:53;-1.10;1.00
8372;DHT22;4223;48.724;8.982;2022-12-17T12:52:39;-0.70;1.00
8372;DHT22;4223;48.724;8.982;2022-12-17T12:55:36;-0.50;1.00
8372;DHT22;4223;48.724;8.982;2022-12-17T12:58:25;-0.40;1.00
8372;DHT22;4223;48.724;8.982;2022-12-17T13:01:11;-0.30;1.00
8372;DHT22;4223;48.724;8.982;2022-12-17T13:03:57;-0.30;1.00
8372;DHT22;4223;48.724;8.982;2022-12-17T13:06:47;-0.20;1.00
8372;DHT22;4223;48.724;8.982;2022-12-17T13:09:36;-0.10;99.90
8372;DHT22;4223;48.724;8.982;2022-12-17T13:12:22;-0.10;1.00
8372;DHT22;4223;48.724;8.982;2022-12-17T13:14:53;0.00;99.90
8372;DHT22;4223;48.724;8.982;2022-12-17T13:17:31;0.00;99.90
8372;DHT22;4223;48.724;8.982;2022-12-17T13:22:49;0.30;99.90
8372;DHT22;4223;48.724;8.982;2022-12-17T13:25:18;0.30;99.90
8372;DHT22;4223;48.724;8.982;2022-12-17T13:27:46;0.40;9.30
8372;DHT22;4223;48.724;8.982;2022-12-17T13:30:22;0.40;1.00
8372;DHT22;4223;48.724;8.982;2022-12-17T13:33:03;0.40;1.00
8372;DHT22;4223;48.724;8.982;2022-12-17T13:35:39;0.20;1.00
8372;DHT22;4223;48.724;8.982;2022-12-17T13:38:16;0.10;99.90
8372;DHT22;4223;48.724;8.982;2022-12-17T13:40:59;0.50;1.00
8372;DHT22;4223;48.724;8.982;2022-12-17T13:43:31;0.60;1.00
8372;DHT22;4223;48.724;8.982;2022-12-17T13:45:58;0.70;1.00
8372;DHT22;4223;48.724;8.982;2022-12-17T13:48:27;0.90;1.00
8372;DHT22;4223;48.724;8.982;2022-12-17T13:50:56;1.10;99.90
8372;DHT22;4223;48.724;8.982;2022-12-17T13:53:24;1.40;1.00
8372;DHT22;4223;48.724;8.982;2022-12-17T13:55:54;1.50;99.90
8372;DHT22;4223;48.724;8.982;2022-12-17T13:58:23;1.60;1.00
8372;DHT22;4223;48.724;8.982;2022-12-17T14:00:51;1.40;99.90
8372;DHT22;4223;48.724;8.982;2022-12-17T14:03:20;1.20;99.90
8372;DHT22;4223;48.724;8.982;2022-12-17T14:05:49;0.80;1.00
8372;DHT22;4223;48.724;8.982;2022-12-17T14:08:17;0.40;1.00
8372;DHT22;4223;48.724;8.982;2022-12-17T14:10:48;0.00;1.00
8372;DHT22;4223;48.724;8.982;2022-12-17T14:13:16;-0.10;1.00
8372;DHT22;4223;48.724;8.982;2022-12-17T14:15:44;-0.40;10.20
8372;DHT22;4223;48.724;8.982;2022-12-17T14:18:15;-0.70;1.00
8372;DHT22;4223;48.724;8.982;2022-12-17T14:20:44;-0.90;1.00
8372;DHT22;4223;48.724;8.982;2022-12-17T14:23:15;-1.30;1.00
8372;DHT22;4223;48.724;8.982;2022-12-17T14:25:44;-1.60;1.00
8372;DHT22;4223;48.724;8.982;2022-12-17T14:28:21;-1.90;1.00
8372;DHT22;4223;48.724;8.982;2022-12-17T14:30:48;-2.20;1.00
8372;DHT22;4223;48.724;8.982;2022-12-17T14:33:27;-2.40;1.00
8372;DHT22;4223;48.724;8.982;2022-12-17T14:35:55;-2.60;1.00
8372;DHT22;4223;48.724;8.982;2022-12-17T14:38:23;-2.70;1.00
8372;DHT22;4223;48.724;8.982;2022-12-17T14:40:50;-2.80;1.00
8372;DHT22;4223;48.724;8.982;2022-12-17T14:43:21;-2.90;14.70
8372;DHT22;4223;48.724;8.982;2022-12-17T14:45:52;-3.00;13.30
8372;DHT22;4223;48.724;8.982;2022-12-17T14:48:52;-3.10;19.50
8372;DHT22;4223;48.724;8.982;2022-12-17T14:51:32;-3.20;22.50
8372;DHT22;4223;48.724;8.982;2022-12-17T14:54:20;-3.30;29.30
8372;DHT22;4223;48.724;8.982;2022-12-17T14:56:50;-3.40;30.30
8372;DHT22;4223;48.724;8.982;2022-12-17T14:59:24;-3.50;32.70
8372;DHT22;4223;48.724;8.982;2022-12-17T15:01:51;-3.50;43.30
8372;DHT22;4223;48.724;8.982;2022-12-17T15:04:19;-3.60;49.00
8372;DHT22;4223;48.724;8.982;2022-12-17T15:06:47;-3.70;53.40
8372;DHT22;4223;48.724;8.982;2022-12-17T15:09:15;-3.90;57.40
8372;DHT22;4223;48.724;8.982;2022-12-17T15:11:42;-4.10;65.40
8372;DHT22;4223;48.724;8.982;2022-12-17T15:14:09;-4.20;76.80
8372;DHT22;4223;48.724;8.982;2022-12-17T15:16:36;-4.40;77.70
8372;DHT22;4223;48.724;8.982;2022-12-17T15:19:03;-4.50;77.20
8372;DHT22;4223;48.724;8.982;2022-12-17T15:21:29;-4.70;82.90
8372;DHT22;4223;48.724;8.982;2022-12-17T15:23:57;-5.00;90.50
8372;DHT22;4223;48.724;8.982;2022-12-17T15:26:25;-5.10;93.60
8372;DHT22;4223;48.724;8.982;2022-12-17T15:28:52;-5.20;96.40
8372;DHT22;4223;48.724;8.982;2022-12-17T15:31:19;-5.30;95.00
8372;DHT22;4223;48.724;8.982;2022-12-17T15:33:46;-5.40;94.20
8372;DHT22;4223;48.724;8.982;2022-12-17T15:36:13;-5.50;93.90
8372;DHT22;4223;48.724;8.982;2022-12-17T15:38:39;-5.60;92.10
8372;DHT22;4223;48.724;8.982;2022-12-17T15:41:06;-5.70;94.00
8372;DHT22;4223;48.724;8.982;2022-12-17T15:43:49;-5.80;95.10
8372;DHT22;4223;48.724;8.982;2022-12-17T15:46:16;-5.90;95.70
8372;DHT22;4223;48.724;8.982;2022-12-17T15:48:42;-6.00;98.10
8372;DHT22;4223;48.724;8.982;2022-12-17T15:51:09;-6.20;98.60
8372;DHT22;4223;48.724;8.982;2022-12-17T15:53:36;-6.30;99.90
8372;DHT22;4223;48.724;8.982;2022-12-17T15:56:04;-6.40;99.90
8372;DHT22;4223;48.724;8.982;2022-12-17T15:58:31;-6.40;99.90
8372;DHT22;4223;48.724;8.982;2022-12-17T16:00:59;-6.60;99.90
8372;DHT22;4223;48.724;8.982;2022-12-17T16:03:26;-6.70;99.90
8372;DHT22;4223;48.724;8.982;2022-12-17T16:05:52;-6.80;99.90
8372;DHT22;4223;48.724;8.982;2022-12-17T16:08:19;-6.80;99.90
8372;DHT22;4223;48.724;8.982;2022-12-17T16:10:46;-6.90;99.90
8372;DHT22;4223;48.724;8.982;2022-12-17T16:13:13;-7.00;99.90
8372;DHT22;4223;48.724;8.982;2022-12-17T16:15:40;-7.00;99.90
8372;DHT22;4223;48.724;8.982;2022-12-17T16:18:08;-7.10;99.90
8372;DHT22;4223;48.724;8.982;2022-12-17T16:20:35;-7.20;99.90
8372;DHT22;4223;48.724;8.982;2022-12-17T16:23:02;-7.30;99.90
8372;DHT22;4223;48.724;8.982;2022-12-17T16:25:29;-7.30;99.90
8372;DHT22;4223;48.724;8.982;2022-12-17T16:27:56;-7.40;99.90
8372;DHT22;4223;48.724;8.982;2022-12-17T16:30:23;-7.40;99.90
8372;DHT22;4223;48.724;8.982;2022-12-17T16:32:49;-7.50;99.90
8372;DHT22;4223;48.724;8.982;2022-12-17T16:35:18;-7.60;99.90
8372;DHT22;4223;48.724;8.982;2022-12-17T16:37:44;-7.60;99.90
8372;DHT22;4223;48.724;8.982;2022-12-17T16:42:37;-7.80;99.90
8372;DHT22;4223;48.724;8.982;2022-12-17T16:45:05;-7.90;99.90
8372;DHT22;4223;48.724;8.982;2022-12-17T16:47:32;-7.90;99.90
8372;DHT22;4223;48.724;8.982;2022-12-17T16:49:59;-8.00;99.90
8372;DHT22;4223;48.724;8.982;2022-12-17T16:52:27;-8.10;99.90
8372;DHT22;4223;48.724;8.982;2022-12-17T16:54:54;-8.20;99.90
8372;DHT22;4223;48.724;8.982;2022-12-17T16:57:20;-8.30;99.90
8372;DHT22;4223;48.724;8.982;2022-12-17T16:59:47;-8.40;99.90
8372;DHT22;4223;48.724;8.982;2022-12-17T17:02:14;-8.60;99.90
8372;DHT22;4223;48.724;8.982;2022-12-17T17:04:41;-8.70;99.90
8372;DHT22;4223;48.724;8.982;2022-12-17T17:07:08;-8.90;99.90
8372;DHT22;4223;48.724;8.982;2022-12-17T17:09:37;-9.00;99.90
8372;DHT22;4223;48.724;8.982;2022-12-17T17:12:04;-9.20;99.90
8372;DHT22;4223;48.724;8.982;2022-12-17T17:14:32;-9.20;99.90
8372;DHT22;4223;48.724;8.982;2022-12-17T17:16:59;-9.30;99.90
8372;DHT22;4223;48.724;8.982;2022-12-17T17:19:26;-9.30;99.90
8372;DHT22;4223;48.724;8.982;2022-12-17T17:21:53;-9.30;99.90
8372;DHT22;4223;48.724;8.982;2022-12-17T17:24:22;-9.30;99.90
8372;DHT22;4223;48.724;8.982;2022-12-17T17:26:53;-9.30;99.90
8372;DHT22;4223;48.724;8.982;2022-12-17T17:29:20;-9.30;99.90
8372;DHT22;4223;48.724;8.982;2022-12-17T17:31:47;-9.30;99.90
8372;DHT22;4223;48.724;8.982;2022-12-17T17:34:14;-9.30;99.90
8372;DHT22;4223;48.724;8.982;2022-12-17T17:36:41;-9.30;99.90
8372;DHT22;4223;48.724;8.982;2022-12-17T17:39:08;-9.30;99.90
8372;DHT22;4223;48.724;8.982;2022-12-17T17:41:35;-9.30;99.90
8372;DHT22;4223;48.724;8.982;2022-12-17T17:44:05;-8.60;99.90